Latest Weather Observations for Albury

IDV60801

Issued at 5:05 pm EST Wednesday 1 October 2014 (issued every 30 minutes, with the page automatically refreshed every 10 minutes)

About weather observations | Map of weather stations | Latest weather observations for VIC | Other Formats
Station Details ID: 072160 Name: ALBURY AIRPORT AWS Lat: -36.07 Lon: 146.95 Height: 163.5 m
Data from the previous 72 hours. | See also: Recent months at Albury
Date/Time
EST
Temp
°C
App
Temp
°C
Dew
Point
Rel
Hum
%
Delta-T
°C
Wind Press
QNH
hPa
Press
MSL
hPa
Rain
since 9 am
mm
Dir
 
Spd
km/h
Gust
km/h
Spd
kts
Gust
kts
01/05:00pm 14.9 8.5 3.1 45 5.3 W 26 39 14 21 1021.7 1021.6 0.0
01/04:30pm 15.3 8.6 3.8 46 5.3 W 28 37 15 20 1021.4 1021.3 0.0
01/04:00pm 15.6 10.2 2.7 42 5.8 WSW 20 32 11 17 1021.3 1021.2 0.0
01/03:30pm 15.3 8.5 3.1 44 5.6 W 28 39 15 21 1021.8 1021.7 0.0
01/03:00pm 15.7 8.9 3.2 43 5.7 W 28 37 15 20 1021.7 1021.6 0.0
01/02:30pm 15.8 10.1 2.6 41 6.0 W 22 39 12 21 1021.6 1021.5 0.0
01/02:00pm 15.3 9.5 2.5 42 5.7 WSW 22 32 12 17 1021.6 1021.5 0.0
01/01:30pm 14.7 9.6 2.9 45 5.3 W 19 30 10 16 1021.9 1021.8 0.0
01/01:00pm 14.8 9.5 2.0 42 5.7 SW 19 24 10 13 1022.3 1022.1 0.0
01/12:30pm 14.7 9.4 3.2 46 5.2 WSW 20 30 11 16 1022.7 1022.5 0.0
01/12:00pm 13.7 8.8 2.3 46 5.0 WSW 17 28 9 15 1022.7 1022.5 0.0
01/11:30am 13.8 9.1 3.0 48 4.9 SW 17 28 9 15 1022.8 1022.6 0.0
01/11:00am 12.7 7.5 2.6 50 4.4 W 19 26 10 14 1022.9 1022.7 0.0
01/10:30am 12.6 8.7 3.3 53 4.2 WSW 13 20 7 11 1023.0 1022.8 0.0
01/10:00am 11.6 7.9 4.3 61 3.3 WNW 13 24 7 13 1023.1 1022.9 0.0
01/09:30am 10.9 6.3 3.9 62 3.1 W 17 22 9 12 1022.9 1022.9 0.0
01/09:00am 10.0 5.4 3.5 64 2.8 W 17 24 9 13 1022.7 1022.7 0.0
01/08:30am 9.3 3.6 3.1 65 2.7 W 22 32 12 17 1022.3 1022.3 0.0
01/08:00am 8.6 3.3 2.8 67 2.5 W 20 26 11 14 1021.6 1021.7 0.0
01/07:30am 8.0 3.2 2.7 69 2.2 W 17 24 9 13 1021.4 1021.5 0.0
01/07:00am 6.9 2.8 2.4 73 1.9 W 13 19 7 10 1021.0 1021.1 0.0
01/06:30am 6.0 1.9 2.5 78 1.4 W 13 15 7 8 1020.5 1020.6 0.0
01/06:00am 5.5 1.4 2.2 79 1.3 W 13 17 7 9 1020.0 1020.1 0.0
01/05:30am 5.9 1.0 2.2 77 1.5 W 17 22 9 12 1019.5 1019.6 0.0
01/05:00am 6.1 0.9 2.4 77 1.5 WNW 19 24 10 13 1018.8 1018.9 0.0
01/04:30am 6.3 1.8 2.4 76 1.6 W 15 19 8 10 1018.5 1018.6 0.0
01/04:00am 6.4 1.9 1.9 73 1.8 WNW 15 19 8 10 1017.9 1018.0 0.0
01/03:30am 6.5 1.9 1.6 71 2.0 W 15 22 8 12 1017.6 1017.6 0.0
01/03:00am 7.3 1.8 1.8 68 2.3 W 20 26 11 14 1017.1 1017.1 0.0
01/02:30am 7.6 2.7 2.1 68 2.3 W 17 26 9 14 1016.7 1016.7 0.0
01/02:00am 8.7 2.5 2.3 64 2.7 W 24 33 13 18 1016.3 1016.3 0.0
01/01:30am 9.0 3.9 3.2 67 2.5 W 19 28 10 15 1016.2 1016.2 0.0
01/01:00am 9.2 4.5 3.2 66 2.6 WNW 17 20 9 11 1015.6 1015.7 0.0
01/12:30am 9.5 5.2 3.0 64 2.8 W 15 20 8 11 1015.5 1015.6 0.0
01/12:00am 9.7 5.3 2.6 61 3.0 W 15 24 8 13 1015.3 1015.4 0.0
 
Date/Time
EST
Temp
°C
App
Temp
°C
Dew
Point
Rel
Hum
%
Delta-T
°C
Wind Press
QNH
hPa
Press
MSL
hPa
Rain
since 9 am
mm
Dir
 
Spd
km/h
Gust
km/h
Spd
kts
Gust
kts
30/11:30pm 10.7 5.5 2.5 57 3.5 WSW 19 28 10 15 1014.9 1015.0 0.0
30/11:00pm 11.6 5.0 2.1 52 4.1 WSW 26 35 14 19 1014.6 1014.7 0.0
30/10:30pm 12.2 6.0 2.1 50 4.4 W 24 32 13 17 1014.2 1014.3 0.0
30/10:00pm 12.4 4.9 1.4 47 4.7 WSW 30 44 16 24 1013.4 1013.5 0.0
30/09:30pm 12.5 4.8 2.4 50 4.4 WSW 32 46 17 25 1013.3 1013.4 0.0
30/09:00pm 13.0 5.2 3.1 51 4.4 WSW 33 57 18 31 1013.0 1013.1 0.0
30/08:30pm 14.5 5.7 5.6 55 4.3 WSW 41 63 22 34 1012.2 1012.2 0.0
30/08:00pm 15.7 6.8 7.5 58 4.1 W 44 72 24 39 1011.3 1011.3 0.0
30/07:30pm 17.4 9.6 8.3 55 4.7 W 39 61 21 33 1009.9 1009.9 0.0
30/07:00pm 20.6 11.1 6.9 41 7.0 WNW 46 67 25 36 1008.1 1008.2 0.0
30/06:57pm 20.9 14.0 6.4 39 7.4 WNW 32 67 17 36 1007.8 1007.9 0.0
30/06:30pm 22.5 15.8 5.4 33 8.6 NW 30 48 16 26 1007.0 1007.0 0.0
30/06:29pm 22.5 16.2 5.9 34 8.4 NW 28 48 15 26 1006.9 1006.9 0.0
30/06:00pm 21.3 16.9 7.5 41 7.2 WNW 20 32 11 17 1007.1 1007.1 0.0
30/05:30pm 22.4 17.1 6.6 36 8.1 NW 24 37 13 20 1007.1 1007.1 0.0
30/05:04pm 23.0 16.9 6.7 35 8.4 NW 28 46 15 25 1007.3 1007.3 0.0
30/05:00pm 23.0 17.4 7.1 36 8.3 NW 26 37 14 20 1007.4 1007.4 0.0
30/04:30pm 23.0 17.3 6.7 35 8.4 NW 26 37 14 20 1007.6 1007.7 0.0
30/04:00pm 23.9 18.8 7.5 35 8.7 NW 24 41 13 22 1007.7 1007.8 0.0
30/03:30pm 23.7 17.4 7.3 35 8.6 NW 30 39 16 21 1008.2 1008.3 0.0
30/03:00pm 23.8 17.9 9.0 39 8.0 NW 30 39 16 21 1008.6 1008.7 0.0
30/02:30pm 23.3 17.8 9.0 40 7.7 NW 28 41 15 22 1009.1 1009.2 0.0
30/02:00pm 23.2 18.1 7.7 37 8.2 NNW 24 32 13 17 1009.7 1009.7 0.0
30/01:30pm 23.1 17.1 8.8 40 7.7 NNW 30 44 16 24 1009.8 1009.8 0.0
30/01:00pm 22.9 18.0 10.0 44 7.1 NNW 26 39 14 21 1010.3 1010.3 0.0
30/12:30pm 22.3 16.7 8.8 42 7.2 NNW 28 39 15 21 1011.2 1011.2 0.0
30/12:00pm 21.9 17.2 9.1 44 6.9 NW 24 33 13 18 1011.6 1011.6 0.0
30/11:30am 22.1 20.3 12.1 53 5.7 NW 13 24 7 13 1011.8 1011.8 0.0
30/11:00am 21.2 18.1 11.5 54 5.4 WNW 19 24 10 13 1012.3 1012.3 0.0
30/10:30am 19.2 17.2 11.5 61 4.3 SW 13 20 7 11 1012.8 1012.9 0.0
30/10:00am 18.9 18.1 12.9 68 3.4 SE 9 13 5 7 1012.9 1013.0 0.0
30/09:30am 16.6 16.3 11.3 71 2.9 E 4 7 2 4 1013.3 1013.4 0.0
30/09:00am 15.0 14.5 10.8 76 2.2 SE 4 9 2 5 1013.5 1013.6 0.0
30/08:30am 13.5 12.4 10.1 80 1.8 ESE 6 9 3 5 1013.5 1013.6 0.0
30/08:00am 12.6 11.4 9.6 82 1.5 ESE 6 9 3 5 1013.5 1013.6 0.0
30/07:30am 11.4 11.1 8.8 84 1.3 CALM 0 6 0 3 1013.7 1013.8 0.0
30/07:00am 9.4 9.2 8.9 97 0.2 CALM 0 0 0 0 1013.7 1013.8 0.0
30/06:30am 8.1 7.6 7.8 98 0.1 CALM 0 0 0 0 1013.6 1013.7 0.0
30/06:00am 7.5 6.4 7.1 97 0.2 NE 2 6 1 3 1013.3 1013.4 0.0
30/05:30am 7.8 6.8 7.4 97 0.2 ENE 2 6 1 3 1013.2 1013.3 0.0
30/05:00am 8.2 7.7 7.8 97 0.2 CALM 0 0 0 0 1013.1 1013.2 0.0
30/04:30am 8.0 7.5 7.7 98 0.1 CALM 0 0 0 0 1012.7 1012.8 0.0
30/04:00am 7.8 7.2 7.2 96 0.3 CALM 0 0 0 0 1012.9 1013.0 0.0
30/03:30am 8.2 7.6 7.4 95 0.4 CALM 0 0 0 0 1012.8 1012.9 0.0
30/03:00am 8.6 8.1 7.8 95 0.4 CALM 0 0 0 0 1013.0 1013.1 0.0
30/02:30am 8.8 8.3 7.9 94 0.4 CALM 0 0 0 0 1013.3 1013.4 0.0
30/02:00am 9.3 8.6 8.4 94 0.4 NNW 2 6 1 3 1013.5 1013.6 0.0
30/01:30am 9.9 8.3 8.7 92 0.6 N 7 9 4 5 1013.8 1013.9 0.0
30/01:00am 9.7 9.2 8.0 89 0.8 CALM 0 0 0 0 1014.2 1014.3 0.0
30/12:30am 10.4 10.0 8.3 87 1.0 CALM 0 0 0 0 1014.5 1014.6 0.0
30/12:00am 10.9 10.7 9.0 88 1.0 CALM 0 0 0 0 1014.6 1014.7 0.0
 
Date/Time
EST
Temp
°C
App
Temp
°C
Dew
Point
Rel
Hum
%
Delta-T
°C
Wind Press
QNH
hPa
Press
MSL
hPa
Rain
since 9 am
mm
Dir
 
Spd
km/h
Gust
km/h
Spd
kts
Gust
kts
29/11:30pm 11.1 10.9 9.0 87 1.1 CALM 0 0 0 0 1014.9 1015.0 0.0
29/11:00pm 11.3 10.7 9.0 86 1.2 SE 2 7 1 4 1014.9 1015.0 0.0
29/10:30pm 12.0 12.1 10.1 88 1.0 CALM 0 0 0 0 1015.3 1015.4 0.0
29/10:00pm 11.8 11.8 9.9 88 1.0 CALM 0 0 0 0 1015.3 1015.4 0.0
29/09:30pm 12.2 12.2 9.8 85 1.2 CALM 0 0 0 0 1015.2 1015.3 0.0
29/09:00pm 13.1 13.1 9.7 80 1.8 CALM 0 0 0 0 1015.1 1015.2 0.0
29/08:30pm 14.1 13.9 10.5 79 1.9 NE 2 6 1 3 1014.9 1015.0 0.0
29/08:00pm 14.4 14.5 10.2 76 2.2 CALM 0 0 0 0 1014.7 1014.8 0.0
29/07:30pm 15.4 15.3 10.8 74 2.5 NE 2 6 1 3 1014.5 1014.6 0.0
29/07:00pm 15.9 14.9 10.2 69 3.0 ENE 6 7 3 4 1014.4 1014.5 0.0
29/06:30pm 18.1 17.0 10.0 59 4.3 SSE 6 7 3 4 1014.2 1014.3 0.0
29/06:00pm 19.6 18.5 10.0 54 5.2 W 6 7 3 4 1014.0 1014.1 0.0
29/05:30pm 20.5 18.8 10.0 51 5.7 WSW 9 11 5 6 1013.8 1013.9 0.0
29/05:00pm 20.9 19.5 11.0 53 5.5 W 9 13 5 7 1014.0 1014.1 0.0
29/04:30pm 21.3 19.6 11.1 52 5.7 W 11 17 6 9 1013.9 1014.0 0.0
29/04:00pm 21.2 18.6 9.4 47 6.4 NNW 13 20 7 11 1014.0 1014.1 0.0
29/03:30pm 21.4 19.1 10.6 50 5.9 WNW 13 19 7 10 1013.9 1014.0 0.0
29/03:00pm 20.9 17.6 9.5 48 6.1 N 17 24 9 13 1013.9 1014.0 0.0
29/02:30pm 21.4 19.2 10.9 51 5.8 N 13 20 7 11 1014.0 1014.1 0.0
29/02:00pm 21.5 20.2 11.2 52 5.7 NW 9 15 5 8 1014.2 1014.3 0.0
29/01:30pm 20.8 18.1 10.3 51 5.7 N 15 20 8 11 1014.4 1014.5 0.0
29/01:00pm 20.8 19.1 11.2 54 5.3 N 11 17 6 9 1014.7 1014.8 0.0
29/12:30pm 20.7 19.0 11.3 55 5.2 NNW 11 17 6 9 1014.9 1015.0 0.0
29/12:00pm 20.4 19.0 10.8 54 5.3 N 9 17 5 9 1015.1 1015.2 0.0
29/11:30am 19.7 17.8 10.4 55 5.1 NW 11 17 6 9 1015.1 1015.2 0.0
29/11:00am 19.1 17.1 10.1 56 4.8 WNW 11 17 6 9 1015.3 1015.4 0.0
29/10:30am 18.6 16.5 8.3 51 5.3 N 9 19 5 10 1015.3 1015.4 0.0
29/10:00am 17.9 15.4 8.2 53 5.0 NNW 11 17 6 9 1015.3 1015.4 0.0
29/09:30am 17.3 14.8 6.5 49 5.4 NNW 9 13 5 7 1015.5 1015.6 0.0
29/09:00am 16.8 14.2 6.0 49 5.3 NNE 9 13 5 7 1015.4 1015.5 0.0
29/08:30am 16.1 13.9 6.0 51 4.9 NW 7 13 4 7 1015.1 1015.2 0.0
29/08:00am 15.5 11.8 6.2 54 4.5 WNW 15 19 8 10 1014.8 1014.9 0.0
29/07:30am 15.3 12.8 6.6 56 4.3 NW 9 15 5 8 1014.4 1014.5 0.0
29/07:00am 14.6 11.9 7.2 61 3.7 N 11 15 6 8 1013.9 1014.0 0.0
29/06:30am 13.0 10.6 6.8 66 3.0 NNW 9 13 5 7 1014.1 1014.2 0.0
29/06:00am 11.5 9.0 6.6 72 2.3 N 9 11 5 6 1013.5 1013.6 0.0
29/05:30am 13.3 10.7 6.2 62 3.4 NW 9 13 5 7 1013.1 1013.2 0.0
29/05:00am 13.4 10.8 6.0 61 3.5 N 9 13 5 7 1012.8 1012.9 0.0
29/04:30am 15.0 12.4 6.0 55 4.4 NNE 9 13 5 7 1012.4 1012.4 0.0
29/04:00am 16.0 13.0 5.9 51 4.9 N 11 15 6 8 1012.1 1012.1 0.0
29/03:30am 16.8 13.1 6.3 50 5.2 N 15 20 8 11 1011.4 1011.4 0.0
29/03:00am 17.6 13.9 6.5 48 5.5 N 15 19 8 10 1011.3 1011.3 0.0
29/02:30am 17.0 13.5 7.1 52 5.0 W 15 20 8 11 1011.8 1011.8 0.0
29/02:00am 14.6 12.5 8.1 65 3.3 S 9 9 5 5 1010.8 1010.8 0.0
29/01:30am 16.4 15.2 8.1 58 4.2 SSE 4 7 2 4 1011.0 1011.0 0.0
29/01:00am 19.5 16.6 6.3 42 6.6 N 11 19 6 10 1011.4 1011.4 0.0
29/12:30am 20.3 16.5 5.9 39 7.2 NNE 15 24 8 13 1011.4 1011.4 0.0
29/12:00am 20.4 16.8 6.7 41 7.0 NNE 15 24 8 13 1011.7 1011.7 0.0
 
Date/Time
EST
Temp
°C
App
Temp
°C
Dew
Point
Rel
Hum
%
Delta-T
°C
Wind Press
QNH
hPa
Press
MSL
hPa
Rain
since 9 am
mm
Dir
 
Spd
km/h
Gust
km/h
Spd
kts
Gust
kts
28/11:30pm 19.4 17.2 7.8 47 6.0 NE 9 20 5 11 1011.9 1011.9 0.0
28/11:00pm 17.9 15.3 9.3 57 4.5 ENE 13 17 7 9 1012.1 1012.1 0.0
28/10:30pm 17.8 15.7 9.9 60 4.2 NE 11 15 6 8 1012.5 1012.5 0.0
28/10:00pm 17.0 17.1 10.1 64 3.7 CALM 0 0 0 0 1012.8 1012.9 0.0
28/09:30pm 17.5 16.3 10.4 63 3.8 NE 7 11 4 6 1012.8 1012.9 0.0
28/09:00pm 17.8 16.0 10.9 64 3.7 NE 11 17 6 9 1013.0 1013.1 0.0
28/08:30pm 16.9 16.3 10.3 65 3.5 NNE 4 7 2 4 1013.3 1013.4 0.0
28/08:00pm 18.1 16.3 10.7 62 4.0 NNE 11 17 6 9 1013.1 1013.2 0.0
28/07:30pm 18.5 16.7 10.8 61 4.2 NE 11 15 6 8 1012.9 1013.0 0.0
28/07:00pm 19.2 17.1 11.0 59 4.5 NE 13 17 7 9 1012.5 1012.5 0.0
28/06:30pm 20.1 17.9 10.8 55 5.1 NE 13 17 7 9 1012.2 1012.2 0.0
28/06:00pm 21.4 18.5 10.9 51 5.8 NE 17 20 9 11 1012.4 1012.4 0.0
28/05:30pm 22.6 20.6 11.4 49 6.3 NNE 13 17 7 9 1013.1 1013.2 0.0

Other Formats:

Comma delimited format used in spreadsheet applications
http://www.bom.gov.au/fwo/IDV60801/IDV60801.95896.axf

JavaScript Object Notation format (JSON) in row-major order
http://www.bom.gov.au/fwo/IDV60801/IDV60801.95896.json